^^
Station Historical Data
Daily Summary for April 20, 2017 Units:  English    Metric   Both
« Previous Day
Next Day »
Daily Weekly Monthly Yearly Custom
  High: Low: Average:
Temperature: 77.9 °F 53.1 °F 64.5 °F
Dew Point: 63.5 °F 52.2 °F 56.8 °F
Humidity: 98% 51% 78%
Wind Speed: 3.0mph 0.0mph 0.3mph
Wind Gust: 6.0mph - -
Wind- - SE
Pressure: 30.34 in 30.13 in -
Precipitation: 0.00 in    
Historical Graphs
 
 
Tabular Data for April 20, 2017
Time Temperature Dew Point Pressure Wind Wind Speed Wind Gust Humidity Rainfall Rate (Hourly)
00:03 57.7 °F 55.4 °F 30.34 in Calm     92% 0.00 in
00:08 57.6 °F 55.6 °F 30.33 in Calm     93% 0.00 in
00:13 57.6 °F 55.6 °F 30.33 in Calm   1.0 mph 93% 0.00 in
00:18 57.6 °F 55.6 °F 30.34 in South 0.9 mph 1.0 mph 93% 0.00 in
00:23 57.6 °F 55.6 °F 30.33 in Calm   1.0 mph 93% 0.00 in
00:28 57.4 °F 55.4 °F 30.33 in Calm     93% 0.00 in
00:33 57.4 °F 55.4 °F 30.34 in Calm   1.0 mph 93% 0.00 in
00:38 57.0 °F 55.0 °F 30.33 in Calm     93% 0.00 in
00:43 56.8 °F 55.2 °F 30.34 in Calm     94% 0.00 in
00:48 56.8 °F 55.2 °F 30.34 in Calm     94% 0.00 in
00:53 56.7 °F 55.0 °F 30.34 in Calm     94% 0.00 in
00:58 56.5 °F 54.9 °F 30.33 in Calm     94% 0.00 in
01:03 56.3 °F 54.7 °F 30.33 in Calm   1.0 mph 94% 0.00 in
01:08 56.3 °F 54.9 °F 30.33 in Calm     95% 0.00 in
01:13 56.1 °F 54.7 °F 30.33 in Calm     95% 0.00 in
01:18 56.1 °F 54.7 °F 30.33 in Calm     95% 0.00 in
01:23 55.9 °F 54.3 °F 30.33 in Calm     94% 0.00 in
01:28 55.8 °F 54.3 °F 30.33 in Calm     95% 0.00 in
01:34 55.6 °F 54.1 °F 30.33 in Calm     95% 0.00 in
01:39 55.2 °F 53.8 °F 30.33 in Calm     95% 0.00 in
01:44 55.2 °F 53.8 °F 30.33 in Calm     95% 0.00 in
01:49 55.0 °F 53.6 °F 30.33 in Calm   1.0 mph 95% 0.00 in
01:54 55.0 °F 54.0 °F 30.33 in Calm     96% 0.00 in
01:59 54.9 °F 53.8 °F 30.33 in Calm     96% 0.00 in
02:04 54.9 °F 53.8 °F 30.33 in Calm     96% 0.00 in
02:09 54.7 °F 53.6 °F 30.33 in Calm     96% 0.00 in
02:14 54.7 °F 53.6 °F 30.33 in Calm     96% 0.00 in
02:19 54.3 °F 53.2 °F 30.32 in Calm     96% 0.00 in
02:24 54.1 °F 53.1 °F 30.33 in Calm     96% 0.00 in
02:29 54.1 °F 53.1 °F 30.32 in Calm     96% 0.00 in
02:34 54.1 °F 53.2 °F 30.33 in Calm   1.0 mph 97% 0.00 in
02:39 54.3 °F 53.4 °F 30.33 in Calm     97% 0.00 in
02:44 54.3 °F 53.4 °F 30.32 in Calm   1.0 mph 97% 0.00 in
02:49 54.1 °F 53.2 °F 30.32 in Calm     97% 0.00 in
02:54 53.8 °F 52.7 °F 30.33 in Calm     96% 0.00 in
02:59 53.6 °F 52.5 °F 30.32 in Calm     96% 0.00 in
03:04 53.4 °F 52.3 °F 30.32 in Calm     96% 0.00 in
03:09 53.4 °F 52.5 °F 30.32 in Calm     97% 0.00 in
03:14 53.6 °F 52.7 °F 30.32 in Calm     97% 0.00 in
03:19 53.8 °F 52.9 °F 30.32 in Calm     97% 0.00 in
03:24 53.8 °F 52.9 °F 30.32 in Calm     97% 0.00 in
03:29 54.0 °F 53.1 °F 30.32 in Calm     97% 0.00 in
03:34 54.0 °F 53.1 °F 30.32 in Calm   1.0 mph 97% 0.00 in
03:39 54.0 °F 53.1 °F 30.32 in Calm     97% 0.00 in
03:45 54.0 °F 53.1 °F 30.32 in Calm     97% 0.00 in
03:50 54.0 °F 53.1 °F 30.32 in NW 0.9 mph 1.0 mph 97% 0.00 in
03:55 54.0 °F 53.1 °F 30.32 in Calm     97% 0.00 in
04:00 54.0 °F 53.1 °F 30.32 in Calm     97% 0.00 in
04:05 54.0 °F 53.1 °F 30.32 in Calm     97% 0.00 in
04:10 54.0 °F 53.1 °F 30.32 in SW 0.9 mph 1.0 mph 97% 0.00 in
04:15 54.0 °F 53.1 °F 30.32 in Calm     97% 0.00 in
04:20 54.0 °F 53.1 °F 30.32 in Calm     97% 0.00 in
04:25 54.0 °F 53.1 °F 30.32 in Calm   2.0 mph 97% 0.00 in
04:30 54.0 °F 52.9 °F 30.32 in Calm   1.0 mph 96% 0.00 in
04:32 54.0 °F 52.9 °F 30.32 in Calm     96% 0.00 in
04:37 53.8 °F 52.7 °F 30.32 in Calm     96% 0.00 in
04:42 53.6 °F 52.5 °F 30.33 in Calm     96% 0.00 in
04:47 53.6 °F 52.5 °F 30.32 in Calm     96% 0.00 in
04:52 53.4 °F 52.3 °F 30.32 in Calm     96% 0.00 in
04:57 53.6 °F 52.7 °F 30.32 in Calm     97% 0.00 in
05:02 53.6 °F 52.7 °F 30.32 in Calm   1.0 mph 97% 0.00 in
05:07 53.8 °F 52.9 °F 30.32 in Calm     97% 0.00 in
05:12 53.8 °F 52.7 °F 30.32 in Calm     96% 0.00 in
05:17 53.4 °F 52.3 °F 30.32 in Calm     96% 0.00 in
05:22 53.2 °F 52.2 °F 30.31 in Calm     96% 0.00 in
05:27 53.2 °F 52.2 °F 30.31 in Calm     96% 0.00 in
05:32 53.2 °F 52.2 °F 30.31 in Calm     96% 0.00 in
05:37 53.2 °F 52.3 °F 30.31 in Calm     97% 0.00 in
05:42 53.2 °F 52.3 °F 30.31 in Calm     97% 0.00 in
05:47 53.2 °F 52.3 °F 30.31 in Calm     97% 0.00 in
05:52 53.2 °F 52.3 °F 30.31 in Calm     97% 0.00 in
05:57 53.2 °F 52.3 °F 30.31 in Calm     97% 0.00 in
06:02 53.2 °F 52.3 °F 30.31 in Calm     97% 0.00 in
06:07 53.2 °F 52.3 °F 30.31 in Calm   1.0 mph 97% 0.00 in
06:12 53.2 °F 52.3 °F 30.31 in Calm     97% 0.00 in
06:17 53.2 °F 52.3 °F 30.32 in Calm     97% 0.00 in
06:22 53.1 °F 52.2 °F 30.32 in Calm     97% 0.00 in
06:27 53.1 °F 52.2 °F 30.32 in Calm     97% 0.00 in
06:32 53.1 °F 52.2 °F 30.32 in Calm     97% 0.00 in
06:37 53.1 °F 52.2 °F 30.32 in Calm     97% 0.00 in
06:42 53.4 °F 52.9 °F 30.32 in Calm     98% 0.00 in
06:47 53.4 °F 52.9 °F 30.32 in Calm     98% 0.00 in
06:53 53.6 °F 53.1 °F 30.32 in Calm     98% 0.00 in
06:58 53.4 °F 52.5 °F 30.32 in Calm     97% 0.00 in
07:03 53.6 °F 52.7 °F 30.32 in Calm     97% 0.00 in
07:08 53.8 °F 52.9 °F 30.32 in Calm   1.0 mph 97% 0.00 in
07:13 53.6 °F 52.7 °F 30.32 in Calm     97% 0.00 in
07:18 53.4 °F 52.5 °F 30.33 in Calm     97% 0.00 in
07:23 53.4 °F 52.5 °F 30.32 in Calm     97% 0.00 in
07:28 53.6 °F 52.7 °F 30.33 in Calm     97% 0.00 in
07:33 53.6 °F 52.7 °F 30.33 in Calm     97% 0.00 in
07:38 53.6 °F 52.7 °F 30.33 in Calm     97% 0.00 in
07:43 53.6 °F 52.7 °F 30.33 in Calm     97% 0.00 in
07:48 54.0 °F 53.1 °F 30.33 in Calm     97% 0.00 in
07:53 54.0 °F 53.1 °F 30.34 in Calm     97% 0.00 in
07:58 54.1 °F 53.2 °F 30.34 in Calm     97% 0.00 in
08:03 54.3 °F 53.4 °F 30.34 in Calm     97% 0.00 in
08:08 54.7 °F 53.8 °F 30.34 in Calm     97% 0.00 in
08:13 54.9 °F 54.0 °F 30.34 in Calm     97% 0.00 in
08:18 55.0 °F 54.1 °F 30.34 in Calm     97% 0.00 in
08:23 55.4 °F 54.5 °F 30.34 in Calm     97% 0.00 in
08:28 55.6 °F 54.5 °F 30.34 in Calm     96% 0.00 in
08:33 55.6 °F 54.5 °F 30.34 in Calm     96% 0.00 in
08:43 55.9 °F 54.9 °F 30.34 in Calm     96% 0.00 in
08:48 56.5 °F 55.4 °F 30.34 in SSE 0.9 mph 1.0 mph 96% 0.00 in
08:53 56.7 °F 55.2 °F 30.34 in Calm     95% 0.00 in
08:58 56.8 °F 55.4 °F 30.34 in Calm   1.0 mph 95% 0.00 in
09:03 57.7 °F 56.3 °F 30.34 in Calm   1.0 mph 95% 0.00 in
09:08 58.5 °F 56.1 °F 30.33 in Calm   1.0 mph 92% 0.00 in
09:13 59.0 °F 56.7 °F 30.33 in East 0.9 mph 1.0 mph 92% 0.00 in
09:18 59.4 °F 56.7 °F 30.33 in ESE 0.9 mph 2.0 mph 91% 0.00 in
09:23 59.5 °F 56.7 °F 30.33 in Calm   1.0 mph 90% 0.00 in
09:28 60.1 °F 57.2 °F 30.33 in Calm     90% 0.00 in
09:33 60.8 °F 57.2 °F 30.33 in Calm   1.0 mph 88% 0.00 in
09:38 61.5 °F 57.9 °F 30.33 in Calm     88% 0.00 in
09:44 62.1 °F 57.6 °F 30.33 in Calm   1.0 mph 85% 0.00 in
09:49 62.2 °F 57.9 °F 30.32 in Calm   1.0 mph 86% 0.00 in
09:54 62.4 °F 57.9 °F 30.32 in Calm   1.0 mph 85% 0.00 in
09:59 62.4 °F 58.5 °F 30.32 in East 0.9 mph 1.0 mph 87% 0.00 in
10:04 63.3 °F 58.5 °F 30.32 in Calm   2.0 mph 84% 0.00 in
10:09 63.9 °F 58.6 °F 30.32 in ENE 0.9 mph 1.0 mph 83% 0.00 in
10:14 64.2 °F 58.6 °F 30.32 in Calm     82% 0.00 in
10:19 64.6 °F 59.0 °F 30.32 in Calm     82% 0.00 in
10:24 64.6 °F 59.0 °F 30.32 in ESE 0.9 mph 2.0 mph 82% 0.00 in
10:29 64.6 °F 58.6 °F 30.32 in Calm   1.0 mph 81% 0.00 in
10:34 64.6 °F 59.0 °F 30.32 in Calm   1.0 mph 82% 0.00 in
10:39 65.3 °F 59.0 °F 30.31 in East 0.9 mph 1.0 mph 80% 0.00 in
10:44 65.7 °F 59.4 °F 30.31 in Calm   1.0 mph 80% 0.00 in
10:49 66.4 °F 60.1 °F 30.31 in SE 0.9 mph 1.0 mph 80% 0.00 in
10:54 67.1 °F 60.4 °F 30.31 in Calm   1.0 mph 79% 0.00 in
10:59 68.0 °F 61.2 °F 30.31 in ENE 2.0 mph 3.0 mph 79% 0.00 in
11:02 68.5 °F 61.0 °F 30.31 in Calm   3.0 mph 77% 0.00 in
11:07 69.3 °F 61.0 °F 30.30 in ENE 2.0 mph 2.0 mph 75% 0.00 in
11:12 69.4 °F 60.8 °F 30.30 in ESE 0.9 mph 3.0 mph 74% 0.00 in
11:17 70.0 °F 61.0 °F 30.30 in West 0.9 mph 3.0 mph 73% 0.00 in
11:22 71.4 °F 61.5 °F 30.29 in Calm   1.0 mph 71% 0.00 in
11:27 72.5 °F 62.2 °F 30.29 in ENE 2.0 mph 2.0 mph 70% 0.00 in
11:32 72.9 °F 61.7 °F 30.29 in Calm   3.0 mph 68% 0.00 in
11:37 73.6 °F 61.5 °F 30.29 in Calm   2.0 mph 66% 0.00 in
11:42 74.7 °F 62.1 °F 30.28 in ENE 2.9 mph 4.0 mph 65% 0.00 in
11:47 75.4 °F 61.5 °F 30.28 in Calm   3.0 mph 62% 0.00 in
11:52 76.1 °F 62.6 °F 30.28 in Calm   1.0 mph 63% 0.00 in
11:57 75.9 °F 61.9 °F 30.28 in Calm   2.0 mph 62% 0.00 in
12:02 75.4 °F 61.0 °F 30.28 in ENE 0.9 mph 4.0 mph 61% 0.00 in
12:08 74.8 °F 62.8 °F 30.27 in ENE 2.9 mph 3.0 mph 66% 0.00 in
12:13 75.7 °F 63.5 °F 30.27 in ENE 2.9 mph 3.0 mph 66% 0.00 in
12:18 76.5 °F 61.5 °F 30.27 in ENE 0.9 mph 2.0 mph 60% 0.00 in
12:23 76.5 °F 62.4 °F 30.26 in ENE 2.0 mph 2.0 mph 62% 0.00 in
12:28 77.2 °F 61.3 °F 30.26 in NE 0.9 mph 6.0 mph 58% 0.00 in
12:33 77.7 °F 61.3 °F 30.26 in Calm   3.0 mph 57% 0.00 in
12:38 77.9 °F 61.9 °F 30.25 in NE 0.9 mph 1.0 mph 58% 0.00 in
12:43 76.6 °F 60.8 °F 30.25 in NE 0.9 mph 3.0 mph 58% 0.00 in
12:48 74.7 °F 60.3 °F 30.25 in East 2.9 mph 4.0 mph 61% 0.00 in
12:53 73.6 °F 61.2 °F 30.25 in Calm     65% 0.00 in
12:58 73.0 °F 60.6 °F 30.24 in Calm   2.0 mph 65% 0.00 in
13:03 72.3 °F 61.2 °F 30.24 in ESE 2.0 mph 2.0 mph 68% 0.00 in
13:08 71.8 °F 61.0 °F 30.24 in NE 0.9 mph 1.0 mph 69% 0.00 in
13:13 72.0 °F 61.2 °F 30.24 in ENE 2.0 mph 2.0 mph 69% 0.00 in
13:18 73.6 °F 61.9 °F 30.23 in ENE 2.9 mph 6.0 mph 67% 0.00 in
13:23 74.3 °F 61.3 °F 30.23 in East 0.9 mph 3.0 mph 64% 0.00 in
13:28 75.2 °F 61.3 °F 30.23 in North 0.9 mph 2.0 mph 62% 0.00 in
13:33 75.7 °F 60.8 °F 30.22 in North 0.9 mph 3.0 mph 60% 0.00 in
13:39 75.6 °F 61.2 °F 30.22 in NW 0.9 mph 2.0 mph 61% 0.00 in
13:44 75.4 °F 61.5 °F 30.22 in Calm   1.0 mph 62% 0.00 in
13:49 75.0 °F 59.2 °F 30.22 in Calm   1.0 mph 58% 0.00 in
13:54 75.0 °F 61.5 °F 30.22 in Calm   1.0 mph 63% 0.00 in
13:59 74.5 °F 61.9 °F 30.22 in ENE 0.9 mph 1.0 mph 65% 0.00 in
14:04 73.9 °F 61.9 °F 30.22 in ENE 0.9 mph 1.0 mph 66% 0.00 in
14:09 73.9 °F 62.2 °F 30.21 in Calm     67% 0.00 in
14:19 75.4 °F 61.0 °F 30.20 in Calm   1.0 mph 61% 0.00 in
14:24 75.9 °F 60.1 °F 30.20 in WSW 0.9 mph 1.0 mph 58% 0.00 in
14:29 75.7 °F 60.4 °F 30.20 in East 0.9 mph 2.0 mph 59% 0.00 in
14:34 76.3 °F 59.9 °F 30.20 in WNW 0.9 mph 1.0 mph 57% 0.00 in
14:39 76.5 °F 59.5 °F 30.20 in Calm     56% 0.00 in
14:44 76.8 °F 60.4 °F 30.19 in Calm     57% 0.00 in
14:49 77.2 °F 58.6 °F 30.19 in Calm     53% 0.00 in
14:54 77.2 °F 58.6 °F 30.19 in WNW 1.0 mph 1.0 mph 53% 0.00 in
14:59 76.8 °F 59.0 °F 30.19 in WNW 0.9 mph 1.0 mph 54% 0.00 in
15:04 76.8 °F 57.4 °F 30.19 in Calm   1.0 mph 51% 0.00 in
15:09 76.8 °F 57.9 °F 30.19 in WNW 2.0 mph 2.0 mph 52% 0.00 in
15:14 76.8 °F 57.9 °F 30.18 in Calm   1.0 mph 52% 0.00 in
15:19 76.6 °F 57.7 °F 30.18 in East 0.9 mph 1.0 mph 52% 0.00 in
15:24 76.3 °F 57.4 °F 30.18 in East 3.0 mph 3.0 mph 52% 0.00 in
15:29 75.7 °F 57.4 °F 30.18 in SSE 2.0 mph 3.0 mph 53% 0.00 in
15:41 74.5 °F 58.3 °F 30.17 in NE 0.9 mph 3.0 mph 57% 0.00 in
15:46 73.9 °F 58.3 °F 30.17 in ENE 0.9 mph 3.0 mph 58% 0.00 in
15:51 73.9 °F 59.2 °F 30.17 in SE 0.9 mph 3.0 mph 60% 0.00 in
15:56 73.9 °F 58.3 °F 30.17 in SW 0.9 mph 3.0 mph 58% 0.00 in
16:01 73.4 °F 58.6 °F 30.17 in Calm   1.0 mph 60% 0.00 in
16:06 73.4 °F 58.6 °F 30.17 in Calm   2.0 mph 60% 0.00 in
16:11 73.6 °F 59.4 °F 30.17 in Calm   1.0 mph 61% 0.00 in
16:16 73.8 °F 58.5 °F 30.17 in Calm     59% 0.00 in
16:21 73.8 °F 58.1 °F 30.17 in Calm     58% 0.00 in
16:26 73.6 °F 57.9 °F 30.17 in Calm     58% 0.00 in
16:31 73.0 °F 57.9 °F 30.17 in Calm     59% 0.00 in
16:32 73.0 °F 57.4 °F 30.17 in Calm     58% 0.00 in
16:37 72.7 °F 57.0 °F 30.16 in East 0.9 mph 1.0 mph 58% 0.00 in
16:42 72.3 °F 57.7 °F 30.16 in Calm     60% 0.00 in
16:47 72.3 °F 57.7 °F 30.16 in Calm     60% 0.00 in
16:52 72.1 °F 56.1 °F 30.16 in Calm     57% 0.00 in
16:57 72.1 °F 57.6 °F 30.16 in Calm   1.0 mph 60% 0.00 in
17:02 72.3 °F 57.2 °F 30.16 in Calm   1.0 mph 59% 0.00 in
17:08 72.5 °F 57.4 °F 30.16 in Calm   1.0 mph 59% 0.00 in
17:13 72.7 °F 57.6 °F 30.16 in Calm   2.0 mph 59% 0.00 in
17:18 73.0 °F 56.8 °F 30.16 in SE 0.9 mph 3.0 mph 57% 0.00 in
17:23 73.6 °F 57.9 °F 30.15 in Calm     58% 0.00 in
17:28 73.9 °F 56.3 °F 30.15 in Calm   1.0 mph 54% 0.00 in
17:33 73.9 °F 55.8 °F 30.15 in North 0.9 mph 6.0 mph 53% 0.00 in
17:38 73.6 °F 55.4 °F 30.15 in Calm   2.0 mph 53% 0.00 in
17:43 73.6 °F 55.4 °F 30.15 in Calm   1.0 mph 53% 0.00 in
17:48 73.6 °F 55.9 °F 30.15 in SSW 0.9 mph 1.0 mph 54% 0.00 in
17:53 73.6 °F 55.9 °F 30.15 in Calm   1.0 mph 54% 0.00 in
17:58 73.4 °F 55.8 °F 30.14 in Calm   2.0 mph 54% 0.00 in
18:03 73.2 °F 56.7 °F 30.15 in Calm     56% 0.00 in
18:08 73.0 °F 56.5 °F 30.15 in Calm   1.0 mph 56% 0.00 in
18:13 73.0 °F 57.4 °F 30.14 in NNE 2.0 mph 2.0 mph 58% 0.00 in
18:18 73.0 °F 57.4 °F 30.14 in Calm   1.0 mph 58% 0.00 in
18:23 72.9 °F 57.7 °F 30.14 in Calm   1.0 mph 59% 0.00 in
18:28 72.9 °F 57.7 °F 30.14 in Calm   1.0 mph 59% 0.00 in
18:33 73.0 °F 57.9 °F 30.14 in Calm     59% 0.00 in
18:38 73.0 °F 57.4 °F 30.14 in Calm   1.0 mph 58% 0.00 in
18:43 73.2 °F 57.6 °F 30.14 in Calm     58% 0.00 in
18:48 73.2 °F 57.6 °F 30.14 in Calm     58% 0.00 in
18:53 73.2 °F 57.0 °F 30.14 in Calm   1.0 mph 57% 0.00 in
18:58 73.0 °F 56.8 °F 30.14 in Calm     57% 0.00 in
19:03 72.9 °F 56.7 °F 30.14 in Calm     57% 0.00 in
19:08 72.9 °F 57.2 °F 30.14 in Calm     58% 0.00 in
19:13 72.7 °F 57.6 °F 30.14 in Calm     59% 0.00 in
19:19 72.7 °F 57.6 °F 30.13 in Calm     59% 0.00 in
19:24 72.3 °F 57.7 °F 30.14 in Calm     60% 0.00 in
19:29 72.3 °F 57.7 °F 30.13 in Calm     60% 0.00 in
19:34 72.0 °F 57.7 °F 30.13 in Calm     61% 0.00 in
19:44 71.8 °F 57.6 °F 30.13 in Calm     61% 0.00 in
19:49 71.8 °F 57.6 °F 30.13 in Calm     61% 0.00 in
19:54 71.4 °F 57.7 °F 30.13 in Calm     62% 0.00 in
19:59 71.2 °F 57.9 °F 30.13 in Calm     63% 0.00 in
20:04 70.9 °F 58.1 °F 30.13 in Calm     64% 0.00 in
20:09 70.5 °F 58.1 °F 30.14 in Calm     65% 0.00 in
20:14 70.2 °F 58.6 °F 30.14 in Calm     67% 0.00 in
20:19 69.8 °F 58.8 °F 30.14 in Calm     68% 0.00 in
20:24 69.4 °F 58.5 °F 30.14 in Calm     68% 0.00 in
20:29 69.3 °F 58.3 °F 30.14 in Calm     68% 0.00 in
20:34 69.1 °F 58.5 °F 30.14 in Calm     69% 0.00 in
20:39 68.7 °F 58.5 °F 30.14 in Calm     70% 0.00 in
20:44 68.4 °F 58.3 °F 30.14 in Calm     70% 0.00 in
20:49 68.4 °F 58.6 °F 30.14 in Calm     71% 0.00 in
20:54 68.4 °F 59.0 °F 30.14 in Calm     72% 0.00 in
20:59 68.4 °F 59.4 °F 30.15 in Calm   1.0 mph 73% 0.00 in
21:04 68.4 °F 59.4 °F 30.15 in Calm     73% 0.00 in
21:09 68.0 °F 58.6 °F 30.15 in Calm     72% 0.00 in
21:14 67.6 °F 58.6 °F 30.15 in Calm     73% 0.00 in
21:19 67.5 °F 58.8 °F 30.16 in Calm     74% 0.00 in
21:24 67.5 °F 59.2 °F 30.16 in Calm     75% 0.00 in
21:29 67.3 °F 59.5 °F 30.16 in Calm     76% 0.00 in
21:34 67.3 °F 59.5 °F 30.16 in Calm     76% 0.00 in
21:39 67.5 °F 59.5 °F 30.16 in Calm     76% 0.00 in
21:44 67.5 °F 59.5 °F 30.16 in Calm     76% 0.00 in
21:46 67.5 °F 59.5 °F 30.16 in Calm     76% 0.00 in
21:51 67.5 °F 59.5 °F 30.16 in Calm     76% 0.00 in
21:56 67.5 °F 59.5 °F 30.17 in Calm   1.0 mph 76% 0.00 in
22:01 67.6 °F 59.7 °F 30.16 in Calm   1.0 mph 76% 0.00 in
22:06 67.6 °F 59.7 °F 30.16 in Calm   1.0 mph 76% 0.00 in
22:16 67.3 °F 59.9 °F 30.16 in Calm     77% 0.00 in
22:22 66.9 °F 59.5 °F 30.16 in Calm     77% 0.00 in
22:27 66.6 °F 59.9 °F 30.16 in Calm     79% 0.00 in
22:37 66.0 °F 59.4 °F 30.17 in Calm     79% 0.00 in
22:42 65.8 °F 59.5 °F 30.16 in Calm     80% 0.00 in
22:47 65.7 °F 59.4 °F 30.17 in Calm     80% 0.00 in
22:52 65.5 °F 59.2 °F 30.17 in Calm     80% 0.00 in
22:57 65.5 °F 59.5 °F 30.17 in Calm     81% 0.00 in
23:02 65.5 °F 59.2 °F 30.17 in Calm     80% 0.00 in
23:07 65.7 °F 59.0 °F 30.17 in Calm     79% 0.00 in
23:12 65.7 °F 59.0 °F 30.17 in Calm     79% 0.00 in
23:17 65.5 °F 59.2 °F 30.16 in Calm     80% 0.00 in
23:22 65.1 °F 58.5 °F 30.16 in Calm     79% 0.00 in
23:27 65.1 °F 58.5 °F 30.16 in Calm     79% 0.00 in
23:32 65.1 °F 58.1 °F 30.16 in Calm     78% 0.00 in
23:37 65.3 °F 58.3 °F 30.16 in Calm     78% 0.00 in
23:42 65.5 °F 58.1 °F 30.16 in WSW 0.9 mph 1.0 mph 77% 0.00 in
23:47 65.5 °F 58.1 °F 30.16 in WSW 0.9 mph 1.0 mph 77% 0.00 in
23:52 65.5 °F 58.1 °F 30.16 in Calm     77% 0.00 in
23:57 65.3 °F 57.9 °F 30.16 in Calm     77% 0.00 in
WheeWeather.com
Compliments of Weather Underground - 2.5 mb